CheckWX is a tool to help pilots better visualize weather data.  It is not intended as a substitute for an official pre-flight weather briefing.

22:50:37 UTC

KRBL METAR
Red Bluff Municipal Airport
Red Bluff, California, USA
Current

57 mins ago

KRBL 262154Z AUTO 13006KT 10SM SCT055 BKN070 16/08 A3000 RMK AO2 SLP157 T01560083
Observed
Mar-26 @ 21:54 UTC
Wind
  • 130° at 6 KTS
Visibility
10 SM
Flight Rules
VFR
Cloud Levels
  • Scattered at 5,500' AGL
  • Broken at 7,000' AGL
Temperature
16°C / 61°F
Dewpoint
C / 46°F
Humidity
59%
Altimeter
30" Hg
Pressure
1015.7 hPa
Previous

2 hours ago

KRBL 262054Z AUTO 00000KT 10SM FEW044 FEW070 14/08 A3002 RMK AO2 SLP165 T01440078 58015
Observed
Mar-26 @ 20:54 UTC
Visibility
10 SM
Flight Rules
VFR
Cloud Levels
  • Few at 4,400' AGL
  • Few at 7,000' AGL
Temperature
14°C / 57°F
Dewpoint
C / 46°F
Humidity
67%
Altimeter
30.02" Hg
Pressure
1016.5 hPa
Previous

3 hours ago

KRBL 261954Z AUTO 15005KT 10SM FEW021 BKN070 14/08 A3003 RMK AO2 SLP170 T01390078
Observed
Mar-26 @ 19:54 UTC
Wind
  • 150° at 5 KTS
Visibility
10 SM
Flight Rules
VFR
Cloud Levels
  • Few at 2,100' AGL
  • Broken at 7,000' AGL
Temperature
14°C / 57°F
Dewpoint
C / 46°F
Humidity
67%
Altimeter
30.03" Hg
Pressure
1017 hPa